Petersburg, Texas
Current Conditions -  °F | °C
As of 1:53 AM on Wednesday 26 Nov 2014 (Local Time) from KLBB Reporting Station
Clear Clear  
Wind Chill: 36°   Ceiling: Unl
Heat Index: 43°   Visibility: 10mi
Dew Point: 14°   Wind: 13mph
Humidity: 31%   Direction: 300°WNW
Pressure: 30.04"   Gusts: NA
Location:  33.87°N, 101.6°W
Report Text: KLBB 260753Z 30011KT 10SM CLR 06/M10 A3004 RMK AO2 SLP157 T00611100
Loading
Personal Weather Stations






























Interactive Weather Map New forecast layout! Learn more

10-Day Weather Forecast

Advertisements
Track Severe Weather on mobile